Port Charlotte, Florida
Current Conditions -  °F | °C
As of 10:07 PM on Tuesday 25 Nov 2014 (Local Time) from KPGD Reporting Station
Light Rain Light Rain  
Wind Chill: 26°   Ceiling: 4100
Heat Index: 27°   Visibility: 10mi
Dew Point: 23°   Wind: 12mph
Humidity: 87%   Direction: 180°S
Pressure: 29.93"   Gusts: NA
Location:  26.98°N, 82.1°W
Report Text: KPGD 260307Z AUTO 18010KT 10SM -RA SCT023 BKN041 OVC090 26/23 A2993 RMK AO2 LTG DSNT NW P0000 T02560233
Loading
Personal Weather Stations






























Interactive Weather Map New forecast layout! Learn more

10-Day Weather Forecast

Advertisements
Track Severe Weather on mobile